Time;durP1;ratioP1;P1;durP2;ratioP2;P2;SDS_P1;SDS_P2;PMS_P1;PMS_P2;Temp;Humidity;BMP_temperature;BMP_pressure;BME280_temperature;BME280_humidity;BME280_pressure;Samples;Min_cycle;Max_cycle;Signal;HPM_P1;HPM_P2
2022/06/15 00:09:40;;;;;;;;;;;20.60;53.00;;;;;;20763880;28;19960;-75
2022/06/15 00:19:41;;;;;;;;;;;20.50;53.00;;;;;;20763864;28;19922;-75
2022/06/15 00:29:41;;;;;;;;;;;20.50;53.00;;;;;;20748476;28;19964;-75
2022/06/15 00:39:42;;;;;;;;;;;20.50;53.00;;;;;;20733053;28;19922;-76
2022/06/15 00:49:47;;;;;;;;;;;20.50;53.00;;;;;;20736174;28;19924;-75
2022/06/15 00:59:48;;;;;;;;;;;20.50;53.00;;;;;;20683480;28;19918;-74
2022/06/15 01:09:53;;;;;;;;;;;20.50;53.10;;;;;;20745888;28;19964;-74
2022/06/15 01:19:59;;;;;;;;;;;20.40;53.00;;;;;;20743457;28;20375;-76
2022/06/15 01:30:18;;;;;;;;;;;20.40;53.00;;;;;;20785475;28;19976;-75
2022/06/15 01:40:22;;;;;;;;;;;20.40;53.00;;;;;;20742154;28;19928;-74
2022/06/15 01:50:23;;;;;;;;;;;20.40;53.00;;;;;;20741657;28;19921;-75
2022/06/15 02:00:26;;;;;;;;;;;20.30;52.90;;;;;;20760971;28;19928;-75
2022/06/15 02:10:34;;;;;;;;;;;20.30;52.90;;;;;;20757438;28;19917;-74
2022/06/15 02:20:36;;;;;;;;;;;20.30;53.00;;;;;;20741416;28;19960;-75
2022/06/15 02:30:39;;;;;;;;;;;20.30;53.00;;;;;;20739548;28;19925;-74
2022/06/15 02:40:40;;;;;;;;;;;20.30;53.00;;;;;;20740855;28;19922;-75
2022/06/15 02:50:46;;;;;;;;;;;20.20;53.00;;;;;;20738644;28;19922;-76
2022/06/15 03:00:47;;;;;;;;;;;20.20;52.90;;;;;;20725170;28;20348;-75
2022/06/15 03:10:51;;;;;;;;;;;20.20;52.90;;;;;;20741956;28;20340;-75
2022/06/15 03:20:57;;;;;;;;;;;20.20;52.90;;;;;;20768111;28;19968;-77
2022/06/15 03:30:57;;;;;;;;;;;20.20;53.00;;;;;;20753674;28;19918;-79
2022/06/15 03:40:58;;;;;;;;;;;20.20;53.00;;;;;;20766349;28;20352;-77
2022/06/15 03:50:59;;;;;;;;;;;20.10;52.90;;;;;;20763026;28;19921;-76
2022/06/15 04:01:02;;;;;;;;;;;20.10;52.90;;;;;;20749091;28;20295;-76
2022/06/15 04:11:58;;;;;;;;;;;20.10;52.90;;;;;;20753731;28;20383;-76
2022/06/15 04:21:43;;;;;;;;;;;20.10;52.90;;;;;;20761420;28;19925;-76
2022/06/15 04:31:47;;;;;;;;;;;20.10;52.90;;;;;;20743242;28;20392;-77
2022/06/15 04:41:47;;;;;;;;;;;20.10;52.90;;;;;;20752547;28;19960;-74
2022/06/15 04:51:48;;;;;;;;;;;20.10;53.00;;;;;;20742343;28;19925;-77
2022/06/15 05:01:48;;;;;;;;;;;20.10;53.10;;;;;;20700752;28;19921;-77
2022/06/15 05:11:51;;;;;;;;;;;20.00;53.20;;;;;;20736196;28;19971;-76
2022/06/15 05:21:52;;;;;;;;;;;20.10;53.30;;;;;;20769361;28;19921;-76
2022/06/15 05:31:54;;;;;;;;;;;20.10;53.40;;;;;;20750469;28;19924;-74
2022/06/15 05:41:55;;;;;;;;;;;20.10;53.40;;;;;;20752893;28;19921;-77
2022/06/15 05:51:56;;;;;;;;;;;20.10;53.40;;;;;;20737536;28;19983;-76
2022/06/15 06:01:58;;;;;;;;;;;20.10;54.10;;;;;;20741324;28;19921;-76
2022/06/15 06:11:59;;;;;;;;;;;20.10;53.50;;;;;;20729585;28;19917;-75
2022/06/15 06:21:59;;;;;;;;;;;20.10;53.50;;;;;;20754275;28;19925;-75
2022/06/15 06:32:00;;;;;;;;;;;20.10;53.50;;;;;;20751424;28;19952;-75
2022/06/15 06:42:01;;;;;;;;;;;20.20;53.50;;;;;;20746962;28;19964;-74
2022/06/15 06:52:07;;;;;;;;;;;20.20;53.50;;;;;;20739884;28;19922;-75
2022/06/15 07:02:08;;;;;;;;;;;20.20;53.50;;;;;;20767197;28;19918;-74
2022/06/15 07:12:09;;;;;;;;;;;20.20;53.60;;;;;;20742347;28;20303;-75
2022/06/15 07:22:09;;;;;;;;;;;20.30;53.60;;;;;;20739160;28;19917;-74
2022/06/15 07:32:10;;;;;;;;;;;20.30;53.60;;;;;;21132218;23;19925;-74
2022/06/15 07:42:10;;;;;;;;;;;20.30;53.60;;;;;;20738526;28;20029;-75
2022/06/15 07:52:11;;;;;;;;;;;20.40;53.60;;;;;;20761888;28;19952;-75
2022/06/15 08:02:11;;;;;;;;;;;20.40;53.50;;;;;;20714485;28;19917;-74
2022/06/15 08:12:12;;;;;;;;;;;20.40;53.50;;;;;;20728641;28;19972;-76
2022/06/15 08:22:13;;;;;;;;;;;20.40;53.50;;;;;;20728105;28;20339;-75
2022/06/15 08:32:14;;;;;;;;;;;20.40;53.50;;;;;;20731800;28;19921;-75
2022/06/15 08:42:21;;;;;;;;;;;20.40;53.40;;;;;;20742971;28;20004;-74
2022/06/15 08:52:42;;;;;;;;;;;20.40;53.40;;;;;;20727993;28;19976;-75
2022/06/15 09:02:46;;;;;;;;;;;20.40;53.60;;;;;;20741228;28;19925;-74
2022/06/15 09:13:00;;;;;;;;;;;20.40;53.30;;;;;;20708434;28;19940;-76
2022/06/15 09:23:08;;;;;;;;;;;20.50;53.30;;;;;;20732571;28;19928;-75
2022/06/15 09:33:11;;;;;;;;;;;20.50;53.20;;;;;;20742776;28;19925;-75
2022/06/15 09:43:12;;;;;;;;;;;20.40;53.20;;;;;;20722586;28;20020;-75
2022/06/15 09:53:36;;;;;;;;;;;20.50;53.10;;;;;;20706582;28;19971;-76
2022/06/15 10:03:37;;;;;;;;;;;20.50;53.10;;;;;;20705752;28;19979;-75
2022/06/15 10:13:38;;;;;;;;;;;20.50;53.10;;;;;;20733265;28;19995;-76
2022/06/15 10:23:53;;;;;;;;;;;20.50;53.10;;;;;;20737551;28;19925;-75
2022/06/15 10:33:55;;;;;;;;;;;20.50;53.10;;;;;;20720111;28;19976;-76
2022/06/15 10:43:55;;;;;;;;;;;20.50;53.10;;;;;;20737751;28;20091;-75
2022/06/15 10:54:18;;;;;;;;;;;20.50;53.10;;;;;;20753515;28;19921;-75
2022/06/15 11:04:19;;;;;;;;;;;20.50;53.10;;;;;;20734395;28;19918;-75
2022/06/15 11:14:43;;;;;;;;;;;20.50;53.10;;;;;;20733807;28;19941;-76
2022/06/15 11:24:49;;;;;;;;;;;20.50;53.10;;;;;;20738904;28;19918;-76
2022/06/15 11:35:00;;;;;;;;;;;20.50;53.10;;;;;;20728401;28;20358;-76
2022/06/15 11:45:01;;;;;;;;;;;20.50;53.10;;;;;;20731501;28;19967;-74
2022/06/15 11:55:07;;;;;;;;;;;20.50;53.20;;;;;;20746101;28;19921;-74
2022/06/15 12:05:16;;;;;;;;;;;20.40;53.10;;;;;;20751145;28;19924;-75
2022/06/15 12:15:29;;;;;;;;;;;20.50;53.10;;;;;;20736347;28;20375;-76
2022/06/15 12:25:33;;;;;;;;;;;20.50;53.20;;;;;;20753714;28;19925;-76
2022/06/15 12:35:34;;;;;;;;;;;20.50;53.30;;;;;;20749746;28;20485;-76
2022/06/15 12:45:35;;;;;;;;;;;20.60;53.40;;;;;;20778065;28;19972;-77
2022/06/15 12:55:39;;;;;;;;;;;20.60;53.40;;;;;;20749356;28;19964;-77
2022/06/15 13:05:39;;;;;;;;;;;20.70;53.50;;;;;;20746176;28;20009;-77
2022/06/15 13:15:49;;;;;;;;;;;20.70;53.50;;;;;;20666781;28;19949;-79
2022/06/15 13:25:50;;;;;;;;;;;20.70;53.40;;;;;;20667743;28;19981;-79
2022/06/15 13:36:10;;;;;;;;;;;20.80;53.40;;;;;;20751893;28;19965;-78
2022/06/15 13:46:27;;;;;;;;;;;20.80;53.30;;;;;;20762079;28;19921;-78
2022/06/15 13:56:32;;;;;;;;;;;20.90;53.20;;;;;;20728097;28;20012;-79
2022/06/15 14:06:32;;;;;;;;;;;21.00;53.10;;;;;;20732091;28;19924;-75
2022/06/15 14:16:52;;;;;;;;;;;21.10;52.90;;;;;;20745651;28;19917;-75
2022/06/15 14:26:52;;;;;;;;;;;21.20;52.80;;;;;;20738607;28;20016;-75
2022/06/15 14:36:57;;;;;;;;;;;21.30;52.70;;;;;;20740399;28;20418;-74
2022/06/15 14:46:59;;;;;;;;;;;21.40;52.60;;;;;;20702628;28;19948;-76
2022/06/15 14:57:00;;;;;;;;;;;21.40;52.50;;;;;;20758256;28;20003;-75
2022/06/15 15:07:01;;;;;;;;;;;21.50;52.50;;;;;;20752503;28;20391;-79
2022/06/15 15:17:04;;;;;;;;;;;21.60;52.40;;;;;;20722358;28;19918;-78
2022/06/15 15:27:09;;;;;;;;;;;21.60;52.30;;;;;;20752231;28;19922;-78
2022/06/15 15:47:29;;;;;;;;;;;21.70;52.20;;;;;;20737441;28;19974;-78
2022/06/15 15:57:30;;;;;;;;;;;21.70;52.20;;;;;;20732274;28;20011;-80
2022/06/15 16:07:31;;;;;;;;;;;21.80;52.10;;;;;;20732407;28;19917;-81
2022/06/15 16:17:33;;;;;;;;;;;21.90;52.00;;;;;;20731083;28;19924;-78
2022/06/15 16:27:33;;;;;;;;;;;22.00;51.90;;;;;;20745131;28;19918;-79
2022/06/15 16:37:34;;;;;;;;;;;22.00;51.90;;;;;;20761621;28;19971;-82
2022/06/15 16:47:34;;;;;;;;;;;22.20;51.90;;;;;;20712088;28;19913;-77
2022/06/15 16:57:35;;;;;;;;;;;22.20;51.70;;;;;;20758478;28;19921;-74
2022/06/15 17:07:36;;;;;;;;;;;22.40;51.80;;;;;;20726011;28;19990;-73
2022/06/15 17:17:36;;;;;;;;;;;22.40;52.40;;;;;;20741873;28;19925;-75
2022/06/15 17:27:37;;;;;;;;;;;22.40;51.70;;;;;;20724483;28;19918;-73
2022/06/15 17:37:37;;;;;;;;;;;22.40;51.80;;;;;;20747381;28;19921;-75
2022/06/15 17:47:38;;;;;;;;;;;22.40;51.80;;;;;;20720828;28;20024;-75
2022/06/15 17:57:43;;;;;;;;;;;22.40;51.90;;;;;;20724202;28;19952;-78
2022/06/15 18:07:43;;;;;;;;;;;22.40;51.60;;;;;;20728343;28;19918;-77
2022/06/15 18:17:47;;;;;;;;;;;22.30;51.40;;;;;;20705670;28;19917;-79
2022/06/15 18:27:47;;;;;;;;;;;22.20;51.50;;;;;;20742565;28;19921;-80
2022/06/15 18:37:48;;;;;;;;;;;22.20;51.70;;;;;;20755261;28;19994;-79
2022/06/15 18:47:49;;;;;;;;;;;22.10;51.90;;;;;;20739087;28;20003;-79
2022/06/15 18:57:49;;;;;;;;;;;22.00;52.10;;;;;;20732104;28;20036;-80
2022/06/15 19:07:52;;;;;;;;;;;22.00;52.40;;;;;;20751531;28;20415;-79
2022/06/15 19:17:52;;;;;;;;;;;21.90;52.50;;;;;;20738536;28;19917;-80
2022/06/15 19:27:53;;;;;;;;;;;21.90;52.70;;;;;;20754106;28;19925;-80
2022/06/15 19:37:54;;;;;;;;;;;21.80;52.80;;;;;;20740638;28;19921;-80
2022/06/15 19:47:54;;;;;;;;;;;21.80;53.00;;;;;;20713158;28;19968;-80
2022/06/15 19:57:54;;;;;;;;;;;21.80;53.10;;;;;;20686497;28;19918;-82
2022/06/15 20:07:55;;;;;;;;;;;21.80;53.20;;;;;;20671488;28;19922;-80
2022/06/15 20:17:56;;;;;;;;;;;21.70;53.30;;;;;;20715346;28;19928;-80
2022/06/15 20:28:02;;;;;;;;;;;21.70;53.40;;;;;;20792799;28;19917;-79
2022/06/15 20:38:03;;;;;;;;;;;21.70;53.50;;;;;;20753782;28;19921;-79
2022/06/15 20:48:04;;;;;;;;;;;21.70;53.50;;;;;;20718319;28;19920;-79
2022/06/15 20:58:04;;;;;;;;;;;21.70;53.60;;;;;;20784212;28;20546;-79
2022/06/15 21:08:05;;;;;;;;;;;21.60;53.60;;;;;;20748630;28;20295;-81
2022/06/15 21:18:05;;;;;;;;;;;21.60;53.70;;;;;;20748189;28;19921;-78
2022/06/15 21:28:07;;;;;;;;;;;21.60;53.70;;;;;;20731629;28;20483;-78
2022/06/15 21:38:08;;;;;;;;;;;21.70;53.80;;;;;;20756607;28;19957;-78
2022/06/15 21:48:09;;;;;;;;;;;21.60;53.80;;;;;;20730502;28;20374;-80
2022/06/15 21:58:09;;;;;;;;;;;21.60;53.90;;;;;;20729695;28;19957;-78
2022/06/15 22:08:10;;;;;;;;;;;21.50;53.90;;;;;;20738887;28;20372;-80
2022/06/15 22:18:11;;;;;;;;;;;21.40;53.90;;;;;;20725195;28;19917;-79
2022/06/15 22:28:11;;;;;;;;;;;21.50;54.00;;;;;;20715658;28;20004;-78
2022/06/15 22:38:12;;;;;;;;;;;21.60;54.10;;;;;;20763526;28;19917;-79
2022/06/15 22:50:39;;;;;;;;;;;21.60;54.10;;;;;;20758796;28;20024;-78
2022/06/15 22:58:33;;;;;;;;;;;21.50;54.20;;;;;;20758488;28;19928;-79
2022/06/15 23:08:35;;;;;;;;;;;21.50;54.20;;;;;;20757561;28;21807;-79
2022/06/15 23:18:36;;;;;;;;;;;21.50;54.20;;;;;;20757422;28;19921;-79
2022/06/15 23:28:36;;;;;;;;;;;21.50;54.30;;;;;;20757248;28;19917;-80
2022/06/15 23:38:37;;;;;;;;;;;21.50;54.30;;;;;;20793109;28;19923;-79
2022/06/15 23:48:38;;;;;;;;;;;21.50;54.40;;;;;;20738159;28;20380;-79
2022/06/15 23:58:38;;;;;;;;;;;21.50;54.40;;;;;;20736387;28;19928;-78
